createdAt,value
2023-04-21T00:05:22.004Z,34.00
2023-04-21T00:07:51.400Z,31.30
2023-04-21T00:10:20.005Z,39.72
2023-04-21T00:12:50.416Z,38.92
2023-04-21T00:15:18.453Z,33.55
2023-04-21T00:17:47.185Z,33.40
2023-04-21T00:20:15.511Z,35.10
2023-04-21T00:22:43.120Z,38.88
2023-04-21T00:25:10.948Z,35.92
2023-04-21T00:27:38.980Z,39.70
2023-04-21T00:30:07.082Z,38.15
2023-04-21T00:35:06.190Z,36.70
2023-04-21T00:37:34.896Z,40.60
2023-04-21T00:40:05.320Z,38.67
2023-04-21T00:42:35.995Z,41.00
2023-04-21T00:45:04.756Z,44.47
2023-04-21T00:47:32.581Z,46.17
2023-04-21T00:50:00.873Z,41.05
2023-04-21T00:52:29.113Z,41.97
2023-04-21T00:54:57.287Z,45.15
2023-04-21T00:57:25.040Z,45.50
2023-04-21T00:59:53.008Z,49.28
2023-04-21T01:02:21.186Z,48.33
2023-04-21T01:04:51.045Z,48.75
2023-04-21T01:07:19.558Z,46.63
2023-04-21T01:09:50.253Z,48.63
2023-04-21T01:12:20.119Z,48.42
2023-04-21T01:14:52.403Z,51.85
2023-04-21T01:17:21.711Z,55.78
2023-04-21T01:19:51.636Z,51.13
2023-04-21T01:22:19.790Z,52.92
2023-04-21T01:24:48.751Z,55.75
2023-04-21T01:27:26.594Z,49.25
2023-04-21T01:29:55.170Z,52.15
2023-04-21T01:32:24.676Z,51.88
2023-04-21T01:34:53.963Z,54.30
2023-04-21T01:37:23.589Z,53.33
2023-04-21T01:42:23.735Z,53.20
2023-04-21T01:44:51.583Z,55.92
2023-04-21T01:47:19.756Z,54.03
2023-04-21T01:49:48.867Z,54.85
2023-04-21T01:52:18.726Z,54.65
2023-04-21T01:54:47.469Z,57.75
2023-04-21T01:57:17.411Z,55.13
2023-04-21T01:59:45.576Z,55.97
2023-04-21T02:02:13.548Z,53.72
2023-04-21T02:04:41.467Z,51.42
2023-04-21T02:07:09.313Z,54.45
2023-04-21T02:09:37.181Z,55.47
2023-04-21T02:12:04.832Z,57.85
2023-04-21T02:14:32.600Z,52.53
2023-04-21T02:17:00.130Z,55.92
2023-04-21T02:19:29.276Z,55.33
2023-04-21T02:21:57.318Z,55.42
2023-04-21T02:24:25.183Z,54.28
2023-04-21T02:26:54.617Z,58.63
2023-04-21T02:29:22.332Z,55.58
2023-04-21T02:32:00.862Z,56.97
2023-04-21T02:34:33.533Z,55.95
2023-04-21T02:37:01.411Z,58.92
2023-04-21T02:39:28.954Z,58.33
2023-04-21T02:41:56.976Z,59.45
2023-04-21T02:44:24.907Z,59.72
2023-04-21T02:46:52.516Z,57.75
2023-04-21T02:49:21.187Z,55.00
2023-04-21T02:51:49.825Z,60.97
2023-04-21T02:54:21.492Z,54.40
2023-04-21T02:56:50.379Z,58.38
2023-04-21T02:59:19.208Z,60.13
2023-04-21T03:01:49.391Z,55.05
2023-04-21T03:04:19.095Z,60.00
2023-04-21T03:06:49.567Z,58.58
2023-04-21T03:09:19.174Z,55.58
2023-04-21T03:11:47.873Z,55.30
2023-04-21T03:14:15.633Z,55.83
2023-04-21T03:16:43.276Z,56.10
2023-04-21T03:19:13.180Z,57.95
2023-04-21T03:21:41.244Z,55.67
2023-04-21T03:24:09.564Z,59.13
2023-04-21T03:26:40.962Z,56.30
2023-04-21T03:29:12.578Z,59.95
2023-04-21T03:31:40.128Z,62.58
2023-04-21T03:34:07.817Z,58.95
2023-04-21T03:36:37.120Z,62.33
2023-04-21T03:39:18.770Z,66.90
2023-04-21T03:41:49.889Z,65.55
2023-04-21T03:44:18.615Z,62.20
2023-04-21T03:46:49.074Z,67.80
2023-04-21T03:49:19.300Z,65.25
2023-04-21T03:51:48.079Z,63.45
2023-04-21T03:54:15.805Z,61.08
2023-04-21T03:56:44.515Z,66.43
2023-04-21T03:59:12.729Z,65.82
2023-04-21T04:01:40.552Z,64.25
2023-04-21T04:04:09.440Z,66.55
2023-04-21T04:06:37.764Z,67.65
2023-04-21T04:09:05.469Z,67.50
2023-04-21T04:11:33.164Z,68.70
2023-04-21T04:14:00.817Z,68.03
2023-04-21T04:16:29.271Z,65.88
2023-04-21T04:18:57.086Z,72.32
2023-04-21T04:21:24.686Z,69.97
2023-04-21T04:23:52.477Z,71.55
2023-04-21T04:26:20.486Z,75.05
2023-04-21T04:28:57.128Z,76.13
2023-04-21T04:31:25.710Z,76.05
2023-04-21T04:33:55.248Z,77.90
2023-04-21T04:36:24.199Z,81.32
2023-04-21T04:38:52.251Z,79.30
2023-04-21T04:41:21.045Z,77.72
2023-04-21T04:43:52.298Z,81.13
2023-04-21T04:46:20.775Z,77.70
2023-04-21T04:48:51.704Z,78.47
2023-04-21T04:51:19.757Z,76.05
2023-04-21T04:53:48.536Z,82.22
2023-04-21T04:56:17.422Z,74.07
2023-04-21T04:58:47.830Z,78.47
2023-04-21T05:01:19.364Z,79.88
2023-04-21T05:03:48.524Z,89.43
2023-04-21T05:06:17.391Z,77.93
2023-04-21T05:08:44.986Z,76.60
2023-04-21T05:11:12.707Z,81.97
2023-04-21T05:13:40.751Z,80.63
2023-04-21T05:16:10.132Z,75.60
2023-04-21T05:18:38.550Z,80.93
2023-04-21T05:21:06.499Z,77.55
2023-04-21T05:23:34.544Z,78.68
2023-04-21T05:26:04.489Z,78.05
2023-04-21T05:28:32.661Z,82.20
2023-04-21T05:31:00.271Z,81.32
2023-04-21T05:33:28.417Z,89.97
2023-04-21T05:35:55.894Z,77.72
2023-04-21T05:38:27.777Z,85.45
2023-04-21T05:40:56.333Z,81.18
2023-04-21T05:43:25.392Z,83.90
2023-04-21T05:45:53.503Z,81.93
2023-04-21T05:48:22.802Z,86.50
2023-04-21T05:50:50.349Z,86.95
2023-04-21T05:53:19.149Z,84.32
2023-04-21T05:55:47.638Z,85.93
2023-04-21T05:58:19.839Z,89.40
2023-04-21T06:00:49.497Z,88.65
2023-04-21T06:03:19.221Z,78.28
2023-04-21T06:05:48.951Z,82.50
2023-04-21T06:08:17.845Z,85.72
2023-04-21T06:10:45.718Z,78.05
2023-04-21T06:13:17.056Z,74.68
2023-04-21T06:15:44.978Z,81.22
2023-04-21T06:18:12.744Z,79.60
2023-04-21T06:20:43.198Z,78.32
2023-04-21T06:23:11.383Z,81.15
2023-04-21T06:25:39.523Z,77.43
2023-04-21T06:28:07.448Z,79.88
2023-04-21T06:30:38.782Z,77.13
2023-04-21T06:33:07.596Z,78.38
2023-04-21T06:35:35.242Z,73.32
2023-04-21T06:38:03.024Z,78.22
2023-04-21T06:40:30.674Z,75.22
2023-04-21T06:42:58.293Z,70.93
2023-04-21T06:45:26.988Z,73.32
2023-04-21T06:47:54.602Z,72.57
2023-04-21T06:50:22.486Z,73.35
2023-04-21T06:52:50.394Z,71.75
2023-04-21T06:55:19.244Z,71.15
2023-04-21T06:57:47.286Z,75.07
2023-04-21T07:00:15.984Z,71.63
2023-04-21T07:02:50.785Z,73.68
2023-04-21T07:05:20.596Z,70.00
2023-04-21T07:07:50.342Z,68.38
2023-04-21T07:10:20.067Z,68.88
2023-04-21T07:12:51.184Z,70.30
2023-04-21T07:15:21.981Z,71.00
2023-04-21T07:17:49.662Z,68.55
2023-04-21T07:20:19.023Z,67.97
2023-04-21T07:22:47.625Z,63.33
2023-04-21T07:25:15.790Z,61.53
2023-04-21T07:27:43.476Z,60.60
2023-04-21T07:30:19.811Z,64.45
2023-04-21T07:32:48.750Z,60.17
2023-04-21T07:35:19.426Z,59.22
2023-04-21T07:40:15.523Z,49.80
2023-04-21T07:42:43.123Z,48.88
2023-04-21T07:45:11.578Z,49.97
2023-04-21T07:47:39.499Z,48.22
2023-04-21T07:50:07.863Z,45.42
2023-04-21T07:52:36.466Z,42.72
2023-04-21T07:55:04.387Z,44.55
2023-04-21T07:57:34.616Z,45.85
2023-04-21T08:00:02.342Z,50.85
2023-04-21T08:02:40.033Z,45.03
2023-04-21T08:05:08.033Z,46.45
2023-04-21T08:07:36.664Z,49.53
2023-04-21T08:10:04.665Z,51.38
2023-04-21T08:12:33.958Z,48.65
2023-04-21T08:15:06.152Z,47.80
2023-04-21T08:17:35.708Z,49.25
2023-04-21T08:20:05.022Z,44.05
2023-04-21T08:22:36.918Z,47.28
2023-04-21T08:25:05.716Z,46.63
2023-04-21T08:27:34.144Z,51.88
2023-04-21T08:30:02.033Z,44.70
2023-04-21T08:32:31.861Z,46.25
2023-04-21T08:34:59.651Z,43.05
2023-04-21T08:37:27.822Z,41.47
2023-04-21T08:39:56.600Z,45.42
2023-04-21T08:42:24.423Z,45.50
2023-04-21T08:44:52.804Z,43.90
2023-04-21T08:47:21.684Z,47.65
2023-04-21T08:49:56.687Z,43.78
2023-04-21T08:52:24.882Z,42.05
2023-04-21T08:54:53.521Z,41.65
2023-04-21T08:57:30.648Z,44.53
2023-04-21T08:59:58.436Z,47.50
2023-04-21T09:02:26.480Z,40.60
2023-04-21T09:04:56.598Z,46.67
2023-04-21T09:07:36.155Z,50.45
2023-04-21T09:10:05.712Z,47.85
2023-04-21T09:12:33.534Z,43.60
2023-04-21T09:15:05.499Z,45.45
2023-04-21T09:17:34.128Z,44.03
2023-04-21T09:20:15.954Z,40.95
2023-04-21T09:25:18.737Z,38.78
2023-04-21T09:27:49.222Z,39.00
2023-04-21T09:32:50.731Z,37.53
2023-04-21T09:35:21.461Z,41.35
2023-04-21T09:37:52.645Z,40.17
2023-04-21T09:40:20.416Z,35.92
2023-04-21T09:42:51.077Z,37.95
2023-04-21T09:47:56.115Z,38.08
2023-04-21T09:50:51.172Z,41.65
2023-04-21T09:53:17.935Z,38.15
2023-04-21T09:55:50.866Z,36.83
2023-04-21T09:58:25.046Z,37.65
2023-04-21T10:00:53.357Z,43.05
2023-04-21T10:03:23.782Z,37.97
2023-04-21T10:08:22.593Z,35.20
2023-04-21T10:10:52.990Z,34.67
2023-04-21T10:15:49.205Z,34.30
2023-04-21T10:18:25.380Z,33.50
2023-04-21T10:20:53.633Z,35.90
2023-04-21T10:23:36.963Z,38.63
2023-04-21T10:26:13.473Z,35.78
2023-04-21T10:28:55.059Z,36.83
2023-04-21T10:31:27.217Z,35.58
2023-04-21T10:34:11.232Z,34.97
2023-04-21T10:36:54.058Z,39.08
2023-04-21T10:39:33.684Z,36.88
2023-04-21T10:42:17.879Z,34.87
2023-04-21T10:44:47.937Z,32.38
2023-04-21T10:47:34.476Z,31.33
2023-04-21T10:52:39.017Z,36.78
2023-04-21T10:55:08.531Z,37.20
2023-04-21T10:57:36.911Z,38.07
2023-04-21T11:00:09.089Z,35.78
2023-04-21T11:02:39.840Z,35.65
2023-04-21T11:05:10.339Z,34.25
2023-04-21T11:07:38.364Z,32.13
2023-04-21T11:10:07.437Z,34.38
2023-04-21T11:12:36.121Z,35.55
2023-04-21T11:15:05.332Z,33.08
2023-04-21T11:17:33.206Z,29.88
2023-04-21T11:20:04.454Z,31.08
2023-04-21T11:22:32.362Z,30.10
2023-04-21T11:24:59.948Z,31.08
2023-04-21T11:27:29.039Z,30.77
2023-04-21T11:29:57.608Z,30.25
2023-04-21T11:32:25.801Z,29.45
2023-04-21T11:34:53.558Z,28.42
2023-04-21T11:37:29.550Z,26.88
2023-04-21T11:40:00.719Z,26.55
2023-04-21T11:42:28.932Z,31.63
2023-04-21T11:44:56.932Z,33.20
2023-04-21T11:47:29.187Z,30.38
2023-04-21T11:49:58.550Z,31.65
2023-04-21T11:52:27.465Z,31.10
2023-04-21T11:54:57.298Z,34.30
2023-04-21T11:57:26.761Z,35.25
2023-04-21T11:59:55.585Z,33.75
2023-04-21T12:02:31.101Z,33.47
2023-04-21T12:05:21.426Z,32.22
2023-04-21T12:07:50.529Z,32.97
2023-04-21T12:10:20.303Z,30.83
2023-04-21T12:12:49.214Z,31.65
2023-04-21T12:15:21.717Z,30.25
2023-04-21T12:17:51.471Z,30.17
2023-04-21T12:20:23.705Z,39.30
2023-04-21T12:22:53.192Z,35.38
2023-04-21T12:25:21.628Z,34.10
2023-04-21T12:27:51.250Z,35.17
2023-04-21T12:30:20.627Z,34.33
2023-04-21T12:32:53.956Z,35.35
2023-04-21T12:35:25.077Z,38.78
2023-04-21T12:37:52.692Z,39.42
2023-04-21T12:40:20.982Z,40.55
2023-04-21T12:42:53.935Z,38.00
2023-04-21T12:45:21.843Z,39.17
2023-04-21T12:47:58.491Z,37.15
2023-04-21T12:50:26.956Z,36.85
2023-04-21T12:52:55.417Z,36.40
2023-04-21T12:55:23.817Z,38.28
2023-04-21T12:57:52.948Z,36.58
2023-04-21T13:00:20.546Z,37.88
2023-04-21T13:03:08.324Z,33.47
2023-04-21T13:05:36.726Z,33.58
2023-04-21T13:08:04.488Z,36.78
2023-04-21T13:10:33.919Z,34.38
2023-04-21T13:13:01.555Z,32.70
2023-04-21T13:15:29.553Z,36.67
2023-04-21T13:17:58.532Z,31.00
2023-04-21T13:20:27.338Z,31.90
2023-04-21T13:22:56.219Z,31.17
2023-04-21T13:25:24.620Z,30.08
2023-04-21T13:27:53.340Z,28.90
2023-04-21T13:30:21.415Z,31.98
2023-04-21T13:33:01.262Z,35.95
2023-04-21T13:37:56.958Z,32.75
2023-04-21T13:40:26.042Z,31.75
2023-04-21T13:42:54.076Z,29.92
2023-04-21T13:45:21.762Z,31.08
2023-04-21T13:47:53.248Z,32.40
2023-04-21T13:50:23.301Z,30.77
2023-04-21T13:52:54.391Z,29.00
2023-04-21T13:55:23.014Z,30.85
2023-04-21T13:57:52.593Z,29.80
2023-04-21T14:00:20.565Z,28.38
2023-04-21T14:02:49.943Z,29.70
2023-04-21T14:05:18.994Z,30.75
2023-04-21T14:07:49.137Z,28.92
2023-04-21T14:10:18.282Z,26.08
2023-04-21T14:12:47.591Z,30.00
2023-04-21T14:15:18.224Z,25.98
2023-04-21T14:17:48.964Z,31.70
2023-04-21T14:20:19.272Z,27.75
2023-04-21T14:22:49.302Z,26.42
2023-04-21T14:25:20.020Z,27.85
2023-04-21T14:30:21.880Z,30.60
2023-04-21T14:32:59.848Z,26.52
2023-04-21T14:35:30.132Z,25.45
2023-04-21T14:38:04.329Z,24.80
2023-04-21T14:40:31.986Z,25.77
2023-04-21T14:42:59.836Z,23.83
2023-04-21T14:45:27.770Z,27.23
2023-04-21T14:47:56.155Z,26.13
2023-04-21T14:50:25.387Z,26.52
2023-04-21T14:52:53.348Z,27.80
2023-04-21T14:55:25.318Z,23.15
2023-04-21T14:57:53.385Z,27.50
2023-04-21T15:00:23.338Z,22.92
2023-04-21T15:02:56.355Z,25.88
2023-04-21T15:05:25.003Z,22.95
2023-04-21T15:07:53.105Z,20.67
2023-04-21T15:10:23.806Z,25.65
2023-04-21T15:12:51.469Z,20.45
2023-04-21T15:15:20.097Z,26.25
2023-04-21T15:17:50.419Z,24.95
2023-04-21T15:22:52.147Z,23.08
2023-04-21T15:25:20.840Z,24.45
2023-04-21T15:27:51.739Z,26.05
2023-04-21T15:33:10.209Z,25.77
2023-04-21T15:35:49.477Z,23.27
2023-04-21T15:38:24.144Z,29.20
2023-04-21T15:43:30.507Z,22.80
2023-04-21T15:46:01.867Z,27.55
2023-04-21T15:48:30.978Z,25.08
2023-04-21T15:50:59.034Z,23.83
2023-04-21T15:53:27.609Z,24.52
2023-04-21T15:55:55.783Z,21.50
2023-04-21T15:58:24.662Z,22.92
2023-04-21T16:00:53.792Z,22.30
2023-04-21T16:03:22.609Z,23.17
2023-04-21T16:05:52.593Z,23.67
2023-04-21T16:08:20.651Z,23.30
2023-04-21T16:10:51.520Z,25.30
2023-04-21T16:13:23.179Z,25.45
2023-04-21T16:15:51.137Z,21.77
2023-04-21T16:18:19.908Z,23.67
2023-04-21T16:20:49.918Z,22.80
2023-04-21T16:23:20.805Z,27.45
2023-04-21T16:25:51.186Z,22.30
2023-04-21T16:30:50.193Z,21.60
2023-04-21T16:33:20.991Z,27.40
2023-04-21T16:35:55.403Z,25.08
2023-04-21T16:38:25.920Z,25.85
2023-04-21T16:40:54.490Z,25.67
2023-04-21T16:43:22.209Z,24.88
2023-04-21T16:45:52.026Z,25.92
2023-04-21T16:48:20.720Z,27.45
2023-04-21T16:50:53.910Z,26.77
2023-04-21T16:53:25.988Z,28.40
2023-04-21T16:55:53.945Z,26.63
2023-04-21T16:58:25.149Z,27.27
2023-04-21T17:00:53.422Z,28.55
2023-04-21T17:03:21.858Z,29.80
2023-04-21T17:05:52.277Z,26.85
2023-04-21T17:08:21.861Z,29.92
2023-04-21T17:10:51.446Z,29.07
2023-04-21T17:13:22.929Z,24.42
2023-04-21T17:15:50.957Z,27.88
2023-04-21T17:18:19.425Z,24.45
2023-04-21T17:20:51.181Z,22.92
2023-04-21T17:23:20.438Z,20.38
2023-04-21T17:25:51.569Z,21.02
2023-04-21T17:28:22.357Z,21.80
2023-04-21T17:31:00.446Z,3.92
2023-04-21T17:33:35.568Z,4.78
2023-04-21T17:36:03.717Z,3.15
2023-04-21T17:38:32.366Z,4.63
2023-04-21T17:41:05.430Z,10.63
2023-04-21T17:43:35.844Z,2.95
2023-04-21T17:46:05.095Z,2.75
2023-04-21T17:48:32.856Z,3.10
2023-04-21T17:51:06.150Z,5.28
2023-04-21T17:53:34.048Z,3.35
2023-04-21T17:56:01.703Z,6.60
2023-04-21T17:58:29.657Z,3.72
2023-04-21T18:00:58.230Z,1.70
2023-04-21T18:03:27.375Z,2.25
2023-04-21T18:05:56.617Z,1.80
2023-04-21T18:08:25.365Z,4.25
2023-04-21T18:10:53.204Z,4.65
2023-04-21T18:13:21.175Z,2.72
2023-04-21T18:15:50.818Z,2.75
2023-04-21T18:18:23.806Z,2.35
2023-04-21T18:20:52.921Z,2.55
2023-04-21T18:23:20.835Z,1.90
2023-04-21T18:25:56.160Z,5.95
2023-04-21T18:28:23.788Z,3.20
2023-04-21T18:30:55.999Z,3.10
2023-04-21T18:33:26.671Z,5.57
2023-04-21T18:35:54.711Z,3.83
2023-04-21T18:38:22.735Z,3.85
2023-04-21T18:40:51.124Z,2.63
2023-04-21T18:43:19.304Z,3.22
2023-04-21T18:45:47.777Z,8.30
2023-04-21T18:48:16.076Z,5.05
2023-04-21T18:50:45.623Z,3.47
2023-04-21T18:53:13.467Z,6.63
2023-04-21T18:55:41.204Z,4.60
2023-04-21T18:58:08.839Z,6.32
2023-04-21T19:00:39.434Z,4.75
2023-04-21T19:03:07.514Z,5.20
2023-04-21T19:05:37.333Z,6.50
2023-04-21T19:08:06.166Z,5.45
2023-04-21T19:10:38.058Z,7.13
2023-04-21T19:13:06.088Z,4.88
2023-04-21T19:15:33.939Z,5.38
2023-04-21T19:18:01.757Z,6.18
2023-04-21T19:20:29.932Z,5.97
2023-04-21T19:22:58.534Z,5.55
2023-04-21T19:25:26.194Z,5.70
2023-04-21T19:27:53.813Z,6.45
2023-04-21T19:30:22.161Z,4.90
2023-04-21T19:32:50.259Z,4.45
2023-04-21T19:35:21.799Z,9.23
2023-04-21T19:37:50.055Z,6.28
2023-04-21T19:40:19.320Z,8.30
2023-04-21T19:42:47.852Z,5.28
2023-04-21T19:45:15.428Z,4.35
2023-04-21T19:47:43.576Z,5.43
2023-04-21T19:50:13.022Z,5.10
2023-04-21T19:52:40.673Z,6.32
2023-04-21T19:55:09.359Z,8.45
2023-04-21T19:57:38.266Z,6.15
2023-04-21T20:00:11.648Z,6.35
2023-04-21T20:02:42.791Z,5.55
2023-04-21T20:05:11.661Z,6.68
2023-04-21T20:07:39.863Z,6.97
2023-04-21T20:10:07.661Z,5.28
2023-04-21T20:12:35.516Z,5.00
2023-04-21T20:15:03.205Z,6.15
2023-04-21T20:17:32.316Z,4.65
2023-04-21T20:19:59.903Z,8.73
2023-04-21T20:22:27.803Z,7.72
2023-04-21T20:24:58.123Z,7.88
2023-04-21T20:27:26.444Z,11.65
2023-04-21T20:29:54.454Z,11.85
2023-04-21T20:32:22.026Z,9.50
2023-04-21T20:34:49.737Z,10.38
2023-04-21T20:37:20.883Z,14.15
2023-04-21T20:39:49.554Z,12.55
2023-04-21T20:42:19.407Z,8.35
2023-04-21T20:44:48.510Z,12.50
2023-04-21T20:47:17.581Z,8.40
2023-04-21T20:49:47.825Z,6.95
2023-04-21T20:52:17.316Z,9.50
2023-04-21T20:54:45.097Z,12.80
2023-04-21T20:57:12.941Z,8.60
2023-04-21T21:02:08.750Z,8.75
2023-04-21T21:04:36.784Z,10.57
2023-04-21T21:07:04.493Z,13.55
2023-04-21T21:09:32.089Z,8.63
2023-04-21T21:12:00.053Z,13.60
2023-04-21T21:14:27.598Z,9.70
2023-04-21T21:16:57.120Z,9.43
2023-04-21T21:19:24.887Z,10.02
2023-04-21T21:21:55.825Z,11.68
2023-04-21T21:24:24.930Z,9.15
2023-04-21T21:26:52.582Z,9.25
2023-04-21T21:29:20.737Z,7.72
2023-04-21T21:31:49.060Z,7.22
2023-04-21T21:34:20.163Z,7.88
2023-04-21T21:36:48.914Z,7.75
2023-04-21T21:39:17.297Z,6.97
2023-04-21T21:41:45.144Z,8.05
2023-04-21T21:44:12.812Z,5.03
2023-04-21T21:46:41.783Z,7.13
2023-04-21T21:49:09.528Z,5.63
2023-04-21T21:51:39.535Z,6.20
2023-04-21T21:54:07.617Z,6.93
2023-04-21T21:56:36.811Z,6.07
2023-04-21T21:59:06.473Z,8.98
2023-04-21T22:01:34.219Z,6.88
2023-04-21T22:04:02.220Z,7.75
2023-04-21T22:06:30.211Z,8.70
2023-04-21T22:08:57.617Z,6.45
2023-04-21T22:11:25.202Z,8.35
2023-04-21T22:13:52.856Z,10.88
2023-04-21T22:16:20.480Z,6.13
2023-04-21T22:18:51.061Z,7.50
2023-04-21T22:23:47.236Z,5.22
2023-04-21T22:26:15.221Z,6.13
2023-04-21T22:28:43.744Z,7.47
2023-04-21T22:31:12.823Z,6.13
2023-04-21T22:33:40.704Z,5.72
2023-04-21T22:36:09.949Z,7.22
2023-04-21T22:38:38.564Z,6.45
2023-04-21T22:41:06.896Z,6.10
2023-04-21T22:43:35.236Z,5.05
2023-04-21T22:46:03.294Z,6.15
2023-04-21T22:48:33.016Z,5.22
2023-04-21T22:51:02.261Z,6.65
2023-04-21T22:53:29.928Z,8.45
2023-04-21T22:55:58.228Z,5.10
2023-04-21T22:58:26.858Z,3.22
2023-04-21T23:00:55.148Z,3.30
2023-04-21T23:03:24.078Z,5.60
2023-04-21T23:05:56.484Z,6.63
2023-04-21T23:08:25.247Z,8.95
2023-04-21T23:10:53.193Z,8.00
2023-04-21T23:13:23.202Z,6.07
2023-04-21T23:15:51.164Z,5.60
2023-04-21T23:18:19.738Z,7.32
2023-04-21T23:20:51.660Z,6.53
2023-04-21T23:23:19.693Z,6.70
2023-04-21T23:25:48.386Z,7.28
2023-04-21T23:28:16.037Z,7.93
2023-04-21T23:30:45.007Z,6.25
2023-04-21T23:33:13.417Z,11.52
2023-04-21T23:35:42.060Z,6.63
2023-04-21T23:38:09.678Z,8.25
2023-04-21T23:40:37.368Z,8.43
2023-04-21T23:43:04.854Z,5.75
2023-04-21T23:45:32.688Z,5.97
2023-04-21T23:48:00.185Z,7.65
2023-04-21T23:50:27.822Z,7.72
2023-04-21T23:52:58.235Z,9.43
2023-04-21T23:57:54.273Z,4.63
